sensor_id;sensor_type;location;lat;lon;timestamp;pressure;altitude;pressure_sealevel;temperature;humidity
66703;BME280;60933;46.398;-63.798;2024-01-10T00:02:24;102712.16;;;-12.41;75.97
66703;BME280;60933;46.398;-63.798;2024-01-10T00:04:53;102716.81;;;-12.44;76.59
66703;BME280;60933;46.398;-63.798;2024-01-10T00:07:21;102721.06;;;-12.43;75.54
66703;BME280;60933;46.398;-63.798;2024-01-10T00:09:49;102707.44;;;-12.46;76.99
66703;BME280;60933;46.398;-63.798;2024-01-10T00:12:17;102689.25;;;-12.54;79.30
66703;BME280;60933;46.398;-63.798;2024-01-10T00:14:46;102690.25;;;-12.52;78.32
66703;BME280;60933;46.398;-63.798;2024-01-10T00:17:14;102683.09;;;-12.58;76.66
66703;BME280;60933;46.398;-63.798;2024-01-10T00:19:43;102689.41;;;-12.52;76.30
66703;BME280;60933;46.398;-63.798;2024-01-10T00:22:11;102687.63;;;-12.53;75.56
66703;BME280;60933;46.398;-63.798;2024-01-10T00:24:39;102685.72;;;-12.56;75.04
66703;BME280;60933;46.398;-63.798;2024-01-10T00:27:07;102689.84;;;-12.57;74.30
66703;BME280;60933;46.398;-63.798;2024-01-10T00:29:35;102693.91;;;-12.57;73.86
66703;BME280;60933;46.398;-63.798;2024-01-10T00:32:04;102707.97;;;-12.58;73.07
66703;BME280;60933;46.398;-63.798;2024-01-10T00:34:32;102704.44;;;-12.60;72.63
66703;BME280;60933;46.398;-63.798;2024-01-10T00:37:00;102714.06;;;-12.63;72.35
66703;BME280;60933;46.398;-63.798;2024-01-10T00:39:29;102706.16;;;-12.67;72.68
66703;BME280;60933;46.398;-63.798;2024-01-10T00:41:57;102695.91;;;-12.70;72.41
66703;BME280;60933;46.398;-63.798;2024-01-10T00:44:25;102694.28;;;-12.70;73.91
66703;BME280;60933;46.398;-63.798;2024-01-10T00:46:53;102689.75;;;-12.74;77.63
66703;BME280;60933;46.398;-63.798;2024-01-10T00:49:21;102692.63;;;-12.78;76.74
66703;BME280;60933;46.398;-63.798;2024-01-10T00:51:50;102700.09;;;-12.78;75.55
66703;BME280;60933;46.398;-63.798;2024-01-10T00:54:18;102703.16;;;-12.81;75.87
66703;BME280;60933;46.398;-63.798;2024-01-10T00:56:46;102705.50;;;-12.82;74.50
66703;BME280;60933;46.398;-63.798;2024-01-10T00:59:15;102700.19;;;-12.85;74.18
66703;BME280;60933;46.398;-63.798;2024-01-10T01:01:43;102701.66;;;-12.87;75.03
66703;BME280;60933;46.398;-63.798;2024-01-10T01:04:11;102691.41;;;-12.91;74.45
66703;BME280;60933;46.398;-63.798;2024-01-10T01:06:40;102670.28;;;-13.03;74.33
66703;BME280;60933;46.398;-63.798;2024-01-10T01:09:08;102670.31;;;-12.94;74.53
66703;BME280;60933;46.398;-63.798;2024-01-10T01:11:36;102659.91;;;-12.99;74.78
66703;BME280;60933;46.398;-63.798;2024-01-10T01:14:04;102664.72;;;-13.00;74.23
66703;BME280;60933;46.398;-63.798;2024-01-10T01:16:32;102673.78;;;-13.01;73.98
66703;BME280;60933;46.398;-63.798;2024-01-10T01:19:00;102673.78;;;-13.01;74.18
66703;BME280;60933;46.398;-63.798;2024-01-10T01:21:28;102663.81;;;-13.01;73.64
66703;BME280;60933;46.398;-63.798;2024-01-10T01:23:57;102647.13;;;-13.02;74.98
66703;BME280;60933;46.398;-63.798;2024-01-10T01:26:25;102648.63;;;-13.04;74.90
66703;BME280;60933;46.398;-63.798;2024-01-10T01:28:53;102652.88;;;-13.03;74.15
66703;BME280;60933;46.398;-63.798;2024-01-10T01:31:22;102663.81;;;-13.01;75.34
66703;BME280;60933;46.398;-63.798;2024-01-10T01:33:50;102669.13;;;-12.98;73.79
66703;BME280;60933;46.398;-63.798;2024-01-10T01:36:19;102653.47;;;-12.97;73.43
66703;BME280;60933;46.398;-63.798;2024-01-10T01:38:47;102667.97;;;-12.93;75.11
66703;BME280;60933;46.398;-63.798;2024-01-10T01:41:15;102656.59;;;-12.91;73.99
66703;BME280;60933;46.398;-63.798;2024-01-10T01:43:44;102661.88;;;-12.87;73.72
66703;BME280;60933;46.398;-63.798;2024-01-10T01:46:13;102646.97;;;-12.87;74.81
66703;BME280;60933;46.398;-63.798;2024-01-10T01:48:42;102637.88;;;-12.87;76.15
66703;BME280;60933;46.398;-63.798;2024-01-10T01:51:11;102624.41;;;-12.89;74.50
66703;BME280;60933;46.398;-63.798;2024-01-10T01:53:40;102621.50;;;-12.85;74.97
66703;BME280;60933;46.398;-63.798;2024-01-10T01:56:10;102542.88;;;-13.34;74.21
66703;BME280;60933;46.398;-63.798;2024-01-10T01:58:42;102603.19;;;-12.85;74.28
66703;BME280;60933;46.398;-63.798;2024-01-10T02:01:11;102613.75;;;-12.79;74.42
66703;BME280;60933;46.398;-63.798;2024-01-10T02:03:40;102609.81;;;-12.77;73.94
66703;BME280;60933;46.398;-63.798;2024-01-10T02:06:09;102603.97;;;-12.78;74.83
66703;BME280;60933;46.398;-63.798;2024-01-10T02:08:38;102610.13;;;-12.74;74.37
66703;BME280;60933;46.398;-63.798;2024-01-10T02:11:06;102604.00;;;-12.69;74.66
66703;BME280;60933;46.398;-63.798;2024-01-10T02:13:35;102610.31;;;-12.64;74.01
66703;BME280;60933;46.398;-63.798;2024-01-10T02:16:04;102612.38;;;-12.60;74.00
66703;BME280;60933;46.398;-63.798;2024-01-10T02:18:34;102598.50;;;-12.58;74.21
66703;BME280;60933;46.398;-63.798;2024-01-10T02:21:02;102610.63;;;-12.52;75.27
66703;BME280;60933;46.398;-63.798;2024-01-10T02:23:31;102596.16;;;-12.47;74.95
66703;BME280;60933;46.398;-63.798;2024-01-10T02:25:59;102592.09;;;-12.47;75.23
66703;BME280;60933;46.398;-63.798;2024-01-10T02:28:27;102597.97;;;-12.37;74.68
66703;BME280;60933;46.398;-63.798;2024-01-10T02:30:56;102589.19;;;-12.34;74.83
66703;BME280;60933;46.398;-63.798;2024-01-10T02:33:25;102601.19;;;-12.30;74.78
66703;BME280;60933;46.398;-63.798;2024-01-10T02:35:53;102594.75;;;-12.28;74.43
66703;BME280;60933;46.398;-63.798;2024-01-10T02:38:23;102599.28;;;-12.23;74.57
66703;BME280;60933;46.398;-63.798;2024-01-10T02:40:51;102589.47;;;-12.22;74.69
66703;BME280;60933;46.398;-63.798;2024-01-10T02:43:19;102586.44;;;-12.19;76.57
66703;BME280;60933;46.398;-63.798;2024-01-10T02:45:47;102589.19;;;-12.16;76.78
66703;BME280;60933;46.398;-63.798;2024-01-10T02:48:16;102590.97;;;-12.15;76.29
66703;BME280;60933;46.398;-63.798;2024-01-10T02:50:44;102590.81;;;-12.17;75.66
66703;BME280;60933;46.398;-63.798;2024-01-10T02:53:12;102598.88;;;-12.11;75.52
66703;BME280;60933;46.398;-63.798;2024-01-10T02:55:40;102586.44;;;-12.11;75.50
66703;BME280;60933;46.398;-63.798;2024-01-10T02:58:09;102601.81;;;-12.06;75.20
66703;BME280;60933;46.398;-63.798;2024-01-10T03:00:37;102582.03;;;-12.04;75.14
66703;BME280;60933;46.398;-63.798;2024-01-10T03:03:05;102583.81;;;-12.03;75.37
66703;BME280;60933;46.398;-63.798;2024-01-10T03:05:33;102568.13;;;-12.02;74.80
66703;BME280;60933;46.398;-63.798;2024-01-10T03:08:02;102555.81;;;-12.01;74.88
66703;BME280;60933;46.398;-63.798;2024-01-10T03:10:31;102545.84;;;-12.01;75.91
66703;BME280;60933;46.398;-63.798;2024-01-10T03:13:00;102546.88;;;-11.99;75.81
66703;BME280;60933;46.398;-63.798;2024-01-10T03:15:27;102552.59;;;-12.00;75.35
66703;BME280;60933;46.398;-63.798;2024-01-10T03:17:55;102543.53;;;-11.99;75.16
66703;BME280;60933;46.398;-63.798;2024-01-10T03:20:24;102549.38;;;-11.99;74.87
66703;BME280;60933;46.398;-63.798;2024-01-10T03:22:52;102554.06;;;-12.02;75.24
66703;BME280;60933;46.398;-63.798;2024-01-10T03:25:20;102547.47;;;-12.01;75.61
66703;BME280;60933;46.398;-63.798;2024-01-10T03:27:48;102548.22;;;-12.02;75.29
66703;BME280;60933;46.398;-63.798;2024-01-10T03:30:16;102543.38;;;-12.01;75.96
66703;BME280;60933;46.398;-63.798;2024-01-10T03:32:45;102543.53;;;-11.99;75.42
66703;BME280;60933;46.398;-63.798;2024-01-10T03:35:14;102534.31;;;-12.00;75.59
66703;BME280;60933;46.398;-63.798;2024-01-10T03:37:42;102532.41;;;-12.03;76.54
66703;BME280;60933;46.398;-63.798;2024-01-10T03:40:11;102527.72;;;-12.08;76.74
66703;BME280;60933;46.398;-63.798;2024-01-10T03:42:39;102535.44;;;-12.05;75.42
66703;BME280;60933;46.398;-63.798;2024-01-10T03:45:07;102534.44;;;-12.07;75.16
66703;BME280;60933;46.398;-63.798;2024-01-10T03:47:35;102522.16;;;-12.15;75.45
66703;BME280;60933;46.398;-63.798;2024-01-10T03:50:04;102503.41;;;-12.11;75.98
66703;BME280;60933;46.398;-63.798;2024-01-10T03:52:32;102504.84;;;-12.13;77.45
66703;BME280;60933;46.398;-63.798;2024-01-10T03:55:00;102489.91;;;-12.13;79.74
66703;BME280;60933;46.398;-63.798;2024-01-10T03:57:28;102493.72;;;-12.17;79.40
66703;BME280;60933;46.398;-63.798;2024-01-10T03:59:56;102508.94;;;-12.14;78.18
66703;BME280;60933;46.398;-63.798;2024-01-10T04:02:24;102512.03;;;-12.16;76.72
66703;BME280;60933;46.398;-63.798;2024-01-10T04:04:52;102496.09;;;-12.18;75.99
66703;BME280;60933;46.398;-63.798;2024-01-10T04:07:20;102487.84;;;-12.17;76.14
66703;BME280;60933;46.398;-63.798;2024-01-10T04:09:48;102477.31;;;-12.23;76.08
66703;BME280;60933;46.398;-63.798;2024-01-10T04:12:17;102478.34;;;-12.21;75.92
66703;BME280;60933;46.398;-63.798;2024-01-10T04:14:45;102479.06;;;-12.22;76.36
66703;BME280;60933;46.398;-63.798;2024-01-10T04:17:13;102464.13;;;-12.22;79.38
66703;BME280;60933;46.398;-63.798;2024-01-10T04:19:41;102454.19;;;-12.22;81.25
66703;BME280;60933;46.398;-63.798;2024-01-10T04:22:09;102435.44;;;-12.28;79.50
66703;BME280;60933;46.398;-63.798;2024-01-10T04:24:37;102436.75;;;-12.22;78.42
66703;BME280;60933;46.398;-63.798;2024-01-10T04:27:05;102434.25;;;-12.22;77.12
66703;BME280;60933;46.398;-63.798;2024-01-10T04:29:37;102441.72;;;-12.22;76.47
66703;BME280;60933;46.398;-63.798;2024-01-10T04:32:05;102448.34;;;-12.23;76.21
66703;BME280;60933;46.398;-63.798;2024-01-10T04:34:34;102454.91;;;-12.23;75.77
66703;BME280;60933;46.398;-63.798;2024-01-10T04:37:02;102458.28;;;-12.23;75.95
66703;BME280;60933;46.398;-63.798;2024-01-10T04:39:30;102459.16;;;-12.22;76.03
66703;BME280;60933;46.398;-63.798;2024-01-10T04:41:58;102455.81;;;-12.23;76.69
66703;BME280;60933;46.398;-63.798;2024-01-10T04:44:26;102469.41;;;-12.19;76.34
66703;BME280;60933;46.398;-63.798;2024-01-10T04:46:54;102465.31;;;-12.19;76.19
66703;BME280;60933;46.398;-63.798;2024-01-10T04:49:22;102463.72;;;-12.18;76.14
66703;BME280;60933;46.398;-63.798;2024-01-10T04:51:51;102467.66;;;-12.12;76.35
66703;BME280;60933;46.398;-63.798;2024-01-10T04:54:19;102470.28;;;-12.10;76.82
66703;BME280;60933;46.398;-63.798;2024-01-10T04:56:47;102477.31;;;-12.06;76.29
66703;BME280;60933;46.398;-63.798;2024-01-10T04:59:15;102477.03;;;-12.00;76.10
66703;BME280;60933;46.398;-63.798;2024-01-10T05:01:43;102472.31;;;-11.97;76.11
66703;BME280;60933;46.398;-63.798;2024-01-10T05:04:11;102480.78;;;-11.95;75.63
66703;BME280;60933;46.398;-63.798;2024-01-10T05:06:39;102490.00;;;-11.94;76.15
66703;BME280;60933;46.398;-63.798;2024-01-10T05:09:07;102510.50;;;-11.88;76.15
66703;BME280;60933;46.398;-63.798;2024-01-10T05:11:38;102509.06;;;-11.86;77.74
66703;BME280;60933;46.398;-63.798;2024-01-10T05:14:09;102511.97;;;-11.81;78.14
66703;BME280;60933;46.398;-63.798;2024-01-10T05:16:37;102508.91;;;-11.79;77.39
66703;BME280;60933;46.398;-63.798;2024-01-10T05:19:05;102496.56;;;-11.77;76.92
66703;BME280;60933;46.398;-63.798;2024-01-10T05:21:34;102487.91;;;-11.72;77.59
66703;BME280;60933;46.398;-63.798;2024-01-10T05:24:03;102477.22;;;-11.71;79.80
66703;BME280;60933;46.398;-63.798;2024-01-10T05:26:31;102483.09;;;-11.70;78.96
66703;BME280;60933;46.398;-63.798;2024-01-10T05:28:59;102481.75;;;-11.67;77.87
66703;BME280;60933;46.398;-63.798;2024-01-10T05:31:27;102464.16;;;-11.68;76.93
66703;BME280;60933;46.398;-63.798;2024-01-10T05:33:55;102465.47;;;-11.63;77.25
66703;BME280;60933;46.398;-63.798;2024-01-10T05:36:23;102444.38;;;-11.67;76.69
66703;BME280;60933;46.398;-63.798;2024-01-10T05:38:51;102436.19;;;-11.66;76.61
66703;BME280;60933;46.398;-63.798;2024-01-10T05:41:19;102427.06;;;-11.65;77.18
66703;BME280;60933;46.398;-63.798;2024-01-10T05:43:47;102420.75;;;-11.62;76.72
66703;BME280;60933;46.398;-63.798;2024-01-10T05:46:15;102416.69;;;-11.61;77.58
66703;BME280;60933;46.398;-63.798;2024-01-10T05:48:44;102414.19;;;-11.61;77.44
66703;BME280;60933;46.398;-63.798;2024-01-10T05:51:12;102419.16;;;-11.61;77.16
66703;BME280;60933;46.398;-63.798;2024-01-10T05:53:41;102434.25;;;-11.59;76.56
66703;BME280;60933;46.398;-63.798;2024-01-10T05:56:08;102419.00;;;-11.63;76.60
66703;BME280;60933;46.398;-63.798;2024-01-10T05:58:36;102414.75;;;-11.64;76.73
66703;BME280;60933;46.398;-63.798;2024-01-10T06:01:05;102402.91;;;-11.66;76.39
66703;BME280;60933;46.398;-63.798;2024-01-10T06:03:38;102410.38;;;-11.66;76.37
66703;BME280;60933;46.398;-63.798;2024-01-10T06:06:06;102411.09;;;-11.67;76.77
66703;BME280;60933;46.398;-63.798;2024-01-10T06:08:34;102395.41;;;-11.66;77.08
66703;BME280;60933;46.398;-63.798;2024-01-10T06:11:04;102399.38;;;-11.68;76.22
66703;BME280;60933;46.398;-63.798;2024-01-10T06:13:37;102403.50;;;-11.69;76.08
66703;BME280;60933;46.398;-63.798;2024-01-10T06:16:19;102415.66;;;-11.72;75.96
66703;BME280;60933;46.398;-63.798;2024-01-10T06:18:47;102419.47;;;-11.67;76.42
66703;BME280;60933;46.398;-63.798;2024-01-10T06:21:16;102389.84;;;-11.64;77.34
66703;BME280;60933;46.398;-63.798;2024-01-10T06:23:44;102376.94;;;-11.59;78.36
66703;BME280;60933;46.398;-63.798;2024-01-10T06:26:12;102386.72;;;-11.52;78.84
66703;BME280;60933;46.398;-63.798;2024-01-10T06:28:42;102382.59;;;-11.52;77.62
66703;BME280;60933;46.398;-63.798;2024-01-10T06:31:10;102393.28;;;-11.44;77.45
66703;BME280;60933;46.398;-63.798;2024-01-10T06:33:39;102406.16;;;-11.39;77.29
66703;BME280;60933;46.398;-63.798;2024-01-10T06:36:07;102393.22;;;-11.35;78.22
66703;BME280;60933;46.398;-63.798;2024-01-10T06:38:35;102376.19;;;-11.31;78.47
66703;BME280;60933;46.398;-63.798;2024-01-10T06:41:08;102356.53;;;-11.27;81.27
66703;BME280;60933;46.398;-63.798;2024-01-10T06:43:37;102367.31;;;-11.18;80.58
66703;BME280;60933;46.398;-63.798;2024-01-10T06:46:05;102383.59;;;-11.13;81.46
66703;BME280;60933;46.398;-63.798;2024-01-10T06:48:33;102373.88;;;-11.10;82.59
66703;BME280;60933;46.398;-63.798;2024-01-10T06:51:02;102361.56;;;-11.08;83.39
66703;BME280;60933;46.398;-63.798;2024-01-10T06:53:30;102372.06;;;-11.02;82.34
66703;BME280;60933;46.398;-63.798;2024-01-10T06:55:59;102362.22;;;-11.01;81.45
66703;BME280;60933;46.398;-63.798;2024-01-10T06:58:27;102354.28;;;-10.96;81.63
66703;BME280;60933;46.398;-63.798;2024-01-10T07:00:55;102339.31;;;-10.96;81.97
66703;BME280;60933;46.398;-63.798;2024-01-10T07:03:23;102338.81;;;-10.92;81.82
66703;BME280;60933;46.398;-63.798;2024-01-10T07:05:51;102339.97;;;-10.89;79.99
66703;BME280;60933;46.398;-63.798;2024-01-10T07:08:19;102339.25;;;-10.88;80.59
66703;BME280;60933;46.398;-63.798;2024-01-10T07:10:47;102337.75;;;-10.86;80.29
66703;BME280;60933;46.398;-63.798;2024-01-10T07:13:15;102334.16;;;-10.79;80.80
66703;BME280;60933;46.398;-63.798;2024-01-10T07:15:43;102313.00;;;-10.74;82.64
66703;BME280;60933;46.398;-63.798;2024-01-10T07:18:11;102291.81;;;-10.69;84.42
66703;BME280;60933;46.398;-63.798;2024-01-10T07:20:39;102268.84;;;-10.64;83.48
66703;BME280;60933;46.398;-63.798;2024-01-10T07:23:07;102259.53;;;-10.57;85.01
66703;BME280;60933;46.398;-63.798;2024-01-10T07:25:35;102264.19;;;-10.51;87.28
66703;BME280;60933;46.398;-63.798;2024-01-10T07:28:05;102272.19;;;-10.45;87.13
66703;BME280;60933;46.398;-63.798;2024-01-10T07:30:33;102259.22;;;-10.41;86.54
66703;BME280;60933;46.398;-63.798;2024-01-10T07:33:01;102248.22;;;-10.32;87.83
66703;BME280;60933;46.398;-63.798;2024-01-10T07:35:29;102223.41;;;-10.31;88.21
66703;BME280;60933;46.398;-63.798;2024-01-10T07:37:58;102218.63;;;-10.28;87.31
66703;BME280;60933;46.398;-63.798;2024-01-10T07:40:26;102204.31;;;-10.20;89.00
66703;BME280;60933;46.398;-63.798;2024-01-10T07:42:54;102195.69;;;-10.13;90.27
66703;BME280;60933;46.398;-63.798;2024-01-10T07:45:23;102181.81;;;-10.10;90.33
66703;BME280;60933;46.398;-63.798;2024-01-10T07:47:51;102158.59;;;-10.09;89.75
66703;BME280;60933;46.398;-63.798;2024-01-10T07:50:19;102164.97;;;-10.02;90.25
66703;BME280;60933;46.398;-63.798;2024-01-10T07:52:47;102151.97;;;-9.98;88.95
66703;BME280;60933;46.398;-63.798;2024-01-10T07:55:15;102143.59;;;-9.88;90.78
66703;BME280;60933;46.398;-63.798;2024-01-10T07:57:43;102139.84;;;-9.83;90.92
66703;BME280;60933;46.398;-63.798;2024-01-10T08:00:11;102122.84;;;-9.77;92.08
66703;BME280;60933;46.398;-63.798;2024-01-10T08:02:40;102116.59;;;-9.72;92.36
66703;BME280;60933;46.398;-63.798;2024-01-10T08:05:09;102105.34;;;-9.66;92.10
66703;BME280;60933;46.398;-63.798;2024-01-10T08:07:37;102092.84;;;-9.66;91.28
66703;BME280;60933;46.398;-63.798;2024-01-10T08:10:07;102086.84;;;-9.58;92.51
66703;BME280;60933;46.398;-63.798;2024-01-10T08:12:37;102081.81;;;-9.58;90.38
66703;BME280;60933;46.398;-63.798;2024-01-10T08:15:09;102077.41;;;-9.50;91.92
66703;BME280;60933;46.398;-63.798;2024-01-10T08:17:38;102084.75;;;-9.42;90.81
66703;BME280;60933;46.398;-63.798;2024-01-10T08:20:07;102078.25;;;-9.40;92.52
66703;BME280;60933;46.398;-63.798;2024-01-10T08:22:36;102077.09;;;-9.33;92.48
66703;BME280;60933;46.398;-63.798;2024-01-10T08:25:06;102079.22;;;-9.27;92.25
66703;BME280;60933;46.398;-63.798;2024-01-10T08:27:34;102094.56;;;-9.23;93.06
66703;BME280;60933;46.398;-63.798;2024-01-10T08:30:02;102094.16;;;-9.17;92.65
66703;BME280;60933;46.398;-63.798;2024-01-10T08:32:32;102089.50;;;-9.12;92.30
66703;BME280;60933;46.398;-63.798;2024-01-10T08:35:06;102088.13;;;-9.09;92.80
66703;BME280;60933;46.398;-63.798;2024-01-10T08:37:37;102073.09;;;-9.09;93.36
66703;BME280;60933;46.398;-63.798;2024-01-10T08:40:06;102084.03;;;-8.96;93.86
66703;BME280;60933;46.398;-63.798;2024-01-10T08:42:38;102080.28;;;-8.91;92.94
66703;BME280;60933;46.398;-63.798;2024-01-10T08:45:07;102080.38;;;-8.89;93.61
66703;BME280;60933;46.398;-63.798;2024-01-10T08:47:37;102091.75;;;-8.83;92.96
66703;BME280;60933;46.398;-63.798;2024-01-10T08:50:05;102095.47;;;-8.78;92.09
66703;BME280;60933;46.398;-63.798;2024-01-10T08:52:36;102085.91;;;-8.71;93.45
66703;BME280;60933;46.398;-63.798;2024-01-10T08:55:08;102067.88;;;-8.67;93.50
66703;BME280;60933;46.398;-63.798;2024-01-10T08:57:43;102058.50;;;-8.58;92.92
66703;BME280;60933;46.398;-63.798;2024-01-10T09:00:11;102055.91;;;-8.60;93.20
66703;BME280;60933;46.398;-63.798;2024-01-10T09:02:42;102067.47;;;-8.50;93.69
66703;BME280;60933;46.398;-63.798;2024-01-10T09:05:10;102062.59;;;-8.48;93.19
66703;BME280;60933;46.398;-63.798;2024-01-10T09:07:38;102062.34;;;-8.39;94.69
66703;BME280;60933;46.398;-63.798;2024-01-10T09:10:07;102055.69;;;-8.39;94.59
66703;BME280;60933;46.398;-63.798;2024-01-10T09:12:35;102043.50;;;-8.34;94.10
66703;BME280;60933;46.398;-63.798;2024-01-10T09:15:04;102037.88;;;-8.32;95.74
66703;BME280;60933;46.398;-63.798;2024-01-10T09:17:32;102045.19;;;-8.23;95.89
66703;BME280;60933;46.398;-63.798;2024-01-10T09:20:00;102043.66;;;-8.21;95.83
66703;BME280;60933;46.398;-63.798;2024-01-10T09:22:30;102032.22;;;-8.17;94.45
66703;BME280;60933;46.398;-63.798;2024-01-10T09:24:58;102029.28;;;-8.12;95.57
66703;BME280;60933;46.398;-63.798;2024-01-10T09:27:32;102028.75;;;-8.07;95.73
66703;BME280;60933;46.398;-63.798;2024-01-10T09:30:02;102013.91;;;-8.04;95.65
66703;BME280;60933;46.398;-63.798;2024-01-10T09:32:30;102007.50;;;-8.01;95.38
66703;BME280;60933;46.398;-63.798;2024-01-10T09:34:58;102000.09;;;-7.99;94.24
66703;BME280;60933;46.398;-63.798;2024-01-10T09:37:26;102007.94;;;-7.95;94.70
66703;BME280;60933;46.398;-63.798;2024-01-10T09:39:55;101982.41;;;-7.89;95.60
66703;BME280;60933;46.398;-63.798;2024-01-10T09:42:22;101979.38;;;-7.85;96.93
66703;BME280;60933;46.398;-63.798;2024-01-10T09:44:53;101974.59;;;-7.82;95.84
66703;BME280;60933;46.398;-63.798;2024-01-10T09:47:21;101951.91;;;-7.83;96.96
66703;BME280;60933;46.398;-63.798;2024-01-10T09:49:49;101957.47;;;-7.75;97.01
66703;BME280;60933;46.398;-63.798;2024-01-10T09:52:27;101938.56;;;-7.70;96.16
66703;BME280;60933;46.398;-63.798;2024-01-10T09:54:57;101922.97;;;-7.66;96.77
66703;BME280;60933;46.398;-63.798;2024-01-10T09:57:25;101923.41;;;-7.60;97.78
66703;BME280;60933;46.398;-63.798;2024-01-10T09:59:54;101901.78;;;-7.58;96.89
66703;BME280;60933;46.398;-63.798;2024-01-10T10:02:25;101893.91;;;-7.51;97.88
66703;BME280;60933;46.398;-63.798;2024-01-10T10:05:14;101901.88;;;-7.44;97.80
66703;BME280;60933;46.398;-63.798;2024-01-10T10:07:47;101900.63;;;-7.38;100.00
66703;BME280;60933;46.398;-63.798;2024-01-10T10:10:17;101908.47;;;-7.33;100.00
66703;BME280;60933;46.398;-63.798;2024-01-10T10:12:47;101898.34;;;-7.35;100.00
66703;BME280;60933;46.398;-63.798;2024-01-10T10:15:16;101916.38;;;-7.27;99.98
66703;BME280;60933;46.398;-63.798;2024-01-10T10:17:47;101919.22;;;-7.22;98.71
66703;BME280;60933;46.398;-63.798;2024-01-10T10:20:30;101913.81;;;-7.15;100.00
66703;BME280;60933;46.398;-63.798;2024-01-10T10:23:05;101909.22;;;-7.09;100.00
66703;BME280;60933;46.398;-63.798;2024-01-10T10:25:35;101909.50;;;-7.04;100.00
66703;BME280;60933;46.398;-63.798;2024-01-10T10:28:05;101911.47;;;-7.00;100.00
66703;BME280;60933;46.398;-63.798;2024-01-10T10:30:36;101910.13;;;-6.95;99.36
66703;BME280;60933;46.398;-63.798;2024-01-10T10:33:05;101896.13;;;-6.91;100.00
66703;BME280;60933;46.398;-63.798;2024-01-10T10:35:35;101896.50;;;-6.85;100.00
66703;BME280;60933;46.398;-63.798;2024-01-10T10:38:09;101880.88;;;-6.81;100.00
66703;BME280;60933;46.398;-63.798;2024-01-10T10:40:38;101877.69;;;-6.78;99.57
66703;BME280;60933;46.398;-63.798;2024-01-10T10:43:12;101841.78;;;-6.77;100.00
66703;BME280;60933;46.398;-63.798;2024-01-10T10:45:48;101864.19;;;-6.67;99.27
66703;BME280;60933;46.398;-63.798;2024-01-10T10:48:20;101866.97;;;-6.62;98.56
66703;BME280;60933;46.398;-63.798;2024-01-10T10:51:13;101861.47;;;-6.57;98.56
66703;BME280;60933;46.398;-63.798;2024-01-10T10:53:44;101831.72;;;-6.64;95.95
66703;BME280;60933;46.398;-63.798;2024-01-10T10:56:13;101833.38;;;-6.51;97.28
66703;BME280;60933;46.398;-63.798;2024-01-10T10:58:43;101816.75;;;-6.49;97.35
66703;BME280;60933;46.398;-63.798;2024-01-10T11:01:14;101811.22;;;-6.43;97.16
66703;BME280;60933;46.398;-63.798;2024-01-10T11:03:42;101813.94;;;-6.40;98.63
66703;BME280;60933;46.398;-63.798;2024-01-10T11:06:12;101815.75;;;-6.38;97.02
66703;BME280;60933;46.398;-63.798;2024-01-10T11:08:55;101807.53;;;-6.35;95.93
66703;BME280;60933;46.398;-63.798;2024-01-10T11:20:05;101767.97;;;-6.24;96.76
66703;BME280;60933;46.398;-63.798;2024-01-10T11:22:53;101749.72;;;-6.22;97.62
66703;BME280;60933;46.398;-63.798;2024-01-10T11:25:26;101728.03;;;-6.20;97.02
66703;BME280;60933;46.398;-63.798;2024-01-10T11:28:02;101704.22;;;-6.26;98.33
66703;BME280;60933;46.398;-63.798;2024-01-10T11:30:37;101705.63;;;-6.16;99.53
66703;BME280;60933;46.398;-63.798;2024-01-10T11:41:11;101664.97;;;-6.09;99.91
66703;BME280;60933;46.398;-63.798;2024-01-10T11:43:40;101654.22;;;-6.07;99.85
66703;BME280;60933;46.398;-63.798;2024-01-10T11:46:08;101661.84;;;-6.05;99.92
66703;BME280;60933;46.398;-63.798;2024-01-10T11:48:37;101680.41;;;-6.03;98.81
66703;BME280;60933;46.398;-63.798;2024-01-10T11:51:07;101663.78;;;-6.01;99.09
66703;BME280;60933;46.398;-63.798;2024-01-10T11:53:43;101658.81;;;-5.99;99.22
66703;BME280;60933;46.398;-63.798;2024-01-10T11:56:14;101659.75;;;-5.97;99.77
66703;BME280;60933;46.398;-63.798;2024-01-10T11:59:03;101664.97;;;-5.94;98.52
66703;BME280;60933;46.398;-63.798;2024-01-10T12:01:37;101660.09;;;-5.91;98.94
66703;BME280;60933;46.398;-63.798;2024-01-10T12:04:06;101665.31;;;-5.88;99.80
66703;BME280;60933;46.398;-63.798;2024-01-10T12:06:46;101665.38;;;-5.86;99.02
66703;BME280;60933;46.398;-63.798;2024-01-10T12:09:15;101660.56;;;-5.83;97.11
66703;BME280;60933;46.398;-63.798;2024-01-10T12:11:44;101648.31;;;-5.77;97.97
66703;BME280;60933;46.398;-63.798;2024-01-10T12:14:14;101643.44;;;-5.74;99.61
66703;BME280;60933;46.398;-63.798;2024-01-10T12:16:43;101632.72;;;-5.72;99.76
66703;BME280;60933;46.398;-63.798;2024-01-10T12:19:11;101634.25;;;-5.74;100.00
66703;BME280;60933;46.398;-63.798;2024-01-10T12:21:39;101632.94;;;-5.67;100.00
66703;BME280;60933;46.398;-63.798;2024-01-10T12:24:07;101612.81;;;-5.67;100.00
66703;BME280;60933;46.398;-63.798;2024-01-10T12:26:35;101593.66;;;-5.65;100.00
66703;BME280;60933;46.398;-63.798;2024-01-10T12:29:03;101584.53;;;-5.63;100.00
66703;BME280;60933;46.398;-63.798;2024-01-10T12:31:34;101566.09;;;-5.63;100.00
66703;BME280;60933;46.398;-63.798;2024-01-10T12:34:02;101548.63;;;-5.60;100.00
66703;BME280;60933;46.398;-63.798;2024-01-10T12:36:34;101527.72;;;-5.59;100.00
66703;BME280;60933;46.398;-63.798;2024-01-10T12:39:02;101508.44;;;-5.59;100.00
66703;BME280;60933;46.398;-63.798;2024-01-10T12:41:30;101504.44;;;-5.55;100.00
66703;BME280;60933;46.398;-63.798;2024-01-10T12:44:00;101487.78;;;-5.53;100.00
66703;BME280;60933;46.398;-63.798;2024-01-10T12:46:31;101486.94;;;-5.53;100.00
66703;BME280;60933;46.398;-63.798;2024-01-10T12:49:03;101480.31;;;-5.51;100.00
66703;BME280;60933;46.398;-63.798;2024-01-10T12:51:34;101458.63;;;-5.49;100.00